sensor_id;sensor_type;location;lat;lon;timestamp;pressure;altitude;pressure_sealevel;temperature
76476;BMP280;65308;50.078;14.854;2023-06-14T00:00:33;99020.19;;;15.07
76476;BMP280;65308;50.078;14.854;2023-06-14T00:03:02;99019.44;;;15.01
76476;BMP280;65308;50.078;14.854;2023-06-14T00:05:30;99013.97;;;14.95
76476;BMP280;65308;50.078;14.854;2023-06-14T00:07:58;99023.94;;;14.89
76476;BMP280;65308;50.078;14.854;2023-06-14T00:10:27;99019.22;;;14.84
76476;BMP280;65308;50.078;14.854;2023-06-14T00:12:56;99021.38;;;14.80
76476;BMP280;65308;50.078;14.854;2023-06-14T00:15:22;99028.72;;;14.79
76476;BMP280;65308;50.078;14.854;2023-06-14T00:17:49;99021.13;;;14.78
76476;BMP280;65308;50.078;14.854;2023-06-14T00:20:16;99020.53;;;14.73
76476;BMP280;65308;50.078;14.854;2023-06-14T00:22:43;99014.16;;;14.71
76476;BMP280;65308;50.078;14.854;2023-06-14T00:25:10;99020.97;;;14.66
76476;BMP280;65308;50.078;14.854;2023-06-14T00:27:38;99022.66;;;14.64
76476;BMP280;65308;50.078;14.854;2023-06-14T00:30:06;99013.00;;;14.57
76476;BMP280;65308;50.078;14.854;2023-06-14T00:32:33;99019.53;;;14.50
76476;BMP280;65308;50.078;14.854;2023-06-14T00:34:59;99012.63;;;14.44
76476;BMP280;65308;50.078;14.854;2023-06-14T00:37:26;99011.78;;;14.38
76476;BMP280;65308;50.078;14.854;2023-06-14T00:39:53;99013.66;;;14.32
76476;BMP280;65308;50.078;14.854;2023-06-14T00:42:23;99011.09;;;14.22
76476;BMP280;65308;50.078;14.854;2023-06-14T00:44:52;99019.81;;;14.17
76476;BMP280;65308;50.078;14.854;2023-06-14T00:47:19;99017.75;;;14.12
76476;BMP280;65308;50.078;14.854;2023-06-14T00:49:46;99020.19;;;14.10
76476;BMP280;65308;50.078;14.854;2023-06-14T00:52:13;99019.16;;;14.08
76476;BMP280;65308;50.078;14.854;2023-06-14T00:54:40;99026.50;;;14.07
76476;BMP280;65308;50.078;14.854;2023-06-14T00:57:08;99019.66;;;14.06
76476;BMP280;65308;50.078;14.854;2023-06-14T00:59:40;99021.84;;;14.08
76476;BMP280;65308;50.078;14.854;2023-06-14T01:02:09;99014.06;;;14.10
76476;BMP280;65308;50.078;14.854;2023-06-14T01:04:37;99011.66;;;14.12
76476;BMP280;65308;50.078;14.854;2023-06-14T01:07:10;99015.38;;;14.14
76476;BMP280;65308;50.078;14.854;2023-06-14T01:09:47;99009.25;;;14.14
76476;BMP280;65308;50.078;14.854;2023-06-14T01:12:23;99012.38;;;14.12
76476;BMP280;65308;50.078;14.854;2023-06-14T01:14:53;99004.81;;;14.11
76476;BMP280;65308;50.078;14.854;2023-06-14T01:17:22;99008.69;;;14.10
76476;BMP280;65308;50.078;14.854;2023-06-14T01:19:51;99001.63;;;14.12
76476;BMP280;65308;50.078;14.854;2023-06-14T01:22:24;99004.59;;;14.14
76476;BMP280;65308;50.078;14.854;2023-06-14T01:24:53;99003.84;;;14.14
76476;BMP280;65308;50.078;14.854;2023-06-14T01:27:22;99004.59;;;14.14
76476;BMP280;65308;50.078;14.854;2023-06-14T01:29:50;99009.69;;;14.12
76476;BMP280;65308;50.078;14.854;2023-06-14T01:32:17;99011.84;;;14.08
76476;BMP280;65308;50.078;14.854;2023-06-14T01:34:44;99010.34;;;14.07
76476;BMP280;65308;50.078;14.854;2023-06-14T01:37:11;99009.91;;;14.09
76476;BMP280;65308;50.078;14.854;2023-06-14T01:39:38;99016.69;;;14.04
76476;BMP280;65308;50.078;14.854;2023-06-14T01:42:07;99016.94;;;14.06
76476;BMP280;65308;50.078;14.854;2023-06-14T01:44:33;99023.06;;;14.07
76476;BMP280;65308;50.078;14.854;2023-06-14T01:47:00;99020.13;;;14.05
76476;BMP280;65308;50.078;14.854;2023-06-14T01:49:27;99021.06;;;14.02
76476;BMP280;65308;50.078;14.854;2023-06-14T01:51:53;99020.78;;;13.99
76476;BMP280;65308;50.078;14.854;2023-06-14T01:54:20;99015.13;;;13.97
76476;BMP280;65308;50.078;14.854;2023-06-14T01:56:48;99019.03;;;13.96
76476;BMP280;65308;50.078;14.854;2023-06-14T01:59:16;99026.06;;;13.94
76476;BMP280;65308;50.078;14.854;2023-06-14T02:01:42;99027.72;;;13.91
76476;BMP280;65308;50.078;14.854;2023-06-14T02:04:09;99019.88;;;13.88
76476;BMP280;65308;50.078;14.854;2023-06-14T02:06:36;99018.56;;;13.83
76476;BMP280;65308;50.078;14.854;2023-06-14T02:09:03;99016.81;;;13.80
76476;BMP280;65308;50.078;14.854;2023-06-14T02:11:29;99018.22;;;13.75
76476;BMP280;65308;50.078;14.854;2023-06-14T02:13:56;99010.03;;;13.70
76476;BMP280;65308;50.078;14.854;2023-06-14T02:16:26;99018.66;;;13.59
76476;BMP280;65308;50.078;14.854;2023-06-14T02:18:54;99018.38;;;13.57
76476;BMP280;65308;50.078;14.854;2023-06-14T02:21:22;99015.41;;;13.55
76476;BMP280;65308;50.078;14.854;2023-06-14T02:23:49;99019.28;;;13.54
76476;BMP280;65308;50.078;14.854;2023-06-14T02:26:15;99017.09;;;13.53
76476;BMP280;65308;50.078;14.854;2023-06-14T02:28:42;99016.34;;;13.52
76476;BMP280;65308;50.078;14.854;2023-06-14T02:31:08;99018.75;;;13.50
76476;BMP280;65308;50.078;14.854;2023-06-14T02:33:37;99022.81;;;13.45
76476;BMP280;65308;50.078;14.854;2023-06-14T02:36:04;99027.47;;;13.45
76476;BMP280;65308;50.078;14.854;2023-06-14T02:38:30;99027.59;;;13.41
76476;BMP280;65308;50.078;14.854;2023-06-14T02:40:57;99030.28;;;13.41
76476;BMP280;65308;50.078;14.854;2023-06-14T02:43:28;99016.16;;;13.41
76476;BMP280;65308;50.078;14.854;2023-06-14T02:45:55;99018.81;;;13.41
76476;BMP280;65308;50.078;14.854;2023-06-14T02:48:21;99019.09;;;13.43
76476;BMP280;65308;50.078;14.854;2023-06-14T02:50:49;99025.66;;;13.42
76476;BMP280;65308;50.078;14.854;2023-06-14T02:53:16;99019.38;;;13.45
76476;BMP280;65308;50.078;14.854;2023-06-14T02:55:43;99020.88;;;13.46
76476;BMP280;65308;50.078;14.854;2023-06-14T02:58:10;99022.59;;;13.49
76476;BMP280;65308;50.078;14.854;2023-06-14T03:00:37;99027.38;;;13.54
76476;BMP280;65308;50.078;14.854;2023-06-14T03:03:03;99026.72;;;13.59
76476;BMP280;65308;50.078;14.854;2023-06-14T03:05:37;99031.91;;;13.63
76476;BMP280;65308;50.078;14.854;2023-06-14T03:08:07;99030.81;;;13.69
76476;BMP280;65308;50.078;14.854;2023-06-14T03:10:34;99028.09;;;13.84
76476;BMP280;65308;50.078;14.854;2023-06-14T03:13:01;99033.94;;;13.97
76476;BMP280;65308;50.078;14.854;2023-06-14T03:15:27;99034.41;;;14.11
76476;BMP280;65308;50.078;14.854;2023-06-14T03:17:54;99031.00;;;14.31
76476;BMP280;65308;50.078;14.854;2023-06-14T03:20:21;99035.94;;;14.53
76476;BMP280;65308;50.078;14.854;2023-06-14T03:22:49;99028.09;;;14.69
76476;BMP280;65308;50.078;14.854;2023-06-14T03:25:17;99029.78;;;14.87
76476;BMP280;65308;50.078;14.854;2023-06-14T03:27:44;99029.78;;;14.87
76476;BMP280;65308;50.078;14.854;2023-06-14T03:30:11;99032.50;;;14.87
76476;BMP280;65308;50.078;14.854;2023-06-14T03:32:37;99043.22;;;14.82
76476;BMP280;65308;50.078;14.854;2023-06-14T03:35:05;99040.44;;;14.76
76476;BMP280;65308;50.078;14.854;2023-06-14T03:37:32;99034.31;;;14.75
76476;BMP280;65308;50.078;14.854;2023-06-14T03:39:59;99034.31;;;14.75
76476;BMP280;65308;50.078;14.854;2023-06-14T03:42:27;99039.97;;;14.78
76476;BMP280;65308;50.078;14.854;2023-06-14T03:44:54;99038.94;;;14.75
76476;BMP280;65308;50.078;14.854;2023-06-14T03:47:20;99049.94;;;14.71
76476;BMP280;65308;50.078;14.854;2023-06-14T03:49:48;99049.94;;;14.71
76476;BMP280;65308;50.078;14.854;2023-06-14T03:52:14;99053.28;;;14.66
76476;BMP280;65308;50.078;14.854;2023-06-14T03:54:42;99053.28;;;14.66
76476;BMP280;65308;50.078;14.854;2023-06-14T03:57:09;99050.59;;;14.66
76476;BMP280;65308;50.078;14.854;2023-06-14T03:59:38;99059.13;;;14.65
76476;BMP280;65308;50.078;14.854;2023-06-14T04:02:07;99063.53;;;14.62
76476;BMP280;65308;50.078;14.854;2023-06-14T04:04:35;99064.00;;;14.61
76476;BMP280;65308;50.078;14.854;2023-06-14T04:07:03;99067.69;;;14.63
76476;BMP280;65308;50.078;14.854;2023-06-14T04:09:34;99070.69;;;14.65
76476;BMP280;65308;50.078;14.854;2023-06-14T04:14:29;99070.59;;;14.80
76476;BMP280;65308;50.078;14.854;2023-06-14T04:19:27;99076.25;;;15.03
76476;BMP280;65308;50.078;14.854;2023-06-14T04:21:54;99075.94;;;15.15
76476;BMP280;65308;50.078;14.854;2023-06-14T04:24:21;99077.56;;;15.28
76476;BMP280;65308;50.078;14.854;2023-06-14T04:26:58;99086.22;;;15.37
76476;BMP280;65308;50.078;14.854;2023-06-14T04:29:26;99084.06;;;15.41
76476;BMP280;65308;50.078;14.854;2023-06-14T04:31:55;99093.44;;;15.46
76476;BMP280;65308;50.078;14.854;2023-06-14T04:37:07;99091.75;;;15.74
76476;BMP280;65308;50.078;14.854;2023-06-14T04:39:35;99094.09;;;15.93
76476;BMP280;65308;50.078;14.854;2023-06-14T04:42:02;99098.91;;;16.09
76476;BMP280;65308;50.078;14.854;2023-06-14T04:44:30;99097.53;;;16.25
76476;BMP280;65308;50.078;14.854;2023-06-14T04:46:57;99099.13;;;16.43
76476;BMP280;65308;50.078;14.854;2023-06-14T04:49:24;99103.38;;;16.61
76476;BMP280;65308;50.078;14.854;2023-06-14T04:51:52;99096.13;;;16.84
76476;BMP280;65308;50.078;14.854;2023-06-14T04:54:32;99100.16;;;17.05
76476;BMP280;65308;50.078;14.854;2023-06-14T04:57:02;99102.94;;;17.27
76476;BMP280;65308;50.078;14.854;2023-06-14T04:59:29;99101.94;;;17.53
76476;BMP280;65308;50.078;14.854;2023-06-14T05:04:41;99106.91;;;17.88
76476;BMP280;65308;50.078;14.854;2023-06-14T05:09:45;99105.38;;;18.32
76476;BMP280;65308;50.078;14.854;2023-06-14T05:12:12;99106.28;;;18.57
76476;BMP280;65308;50.078;14.854;2023-06-14T05:14:39;99099.31;;;18.78
76476;BMP280;65308;50.078;14.854;2023-06-14T05:17:06;99099.00;;;18.93
76476;BMP280;65308;50.078;14.854;2023-06-14T05:19:33;99101.16;;;19.06
76476;BMP280;65308;50.078;14.854;2023-06-14T05:22:15;99111.25;;;19.47
76476;BMP280;65308;50.078;14.854;2023-06-14T05:24:49;99115.78;;;21.36
76476;BMP280;65308;50.078;14.854;2023-06-14T05:27:16;99117.22;;;23.38
76476;BMP280;65308;50.078;14.854;2023-06-14T05:29:43;99114.50;;;25.13
76476;BMP280;65308;50.078;14.854;2023-06-14T05:32:10;99115.22;;;26.80
76476;BMP280;65308;50.078;14.854;2023-06-14T05:34:36;99124.16;;;28.54
76476;BMP280;65308;50.078;14.854;2023-06-14T05:37:03;99127.34;;;30.12
76476;BMP280;65308;50.078;14.854;2023-06-14T05:39:30;99128.72;;;30.64
76476;BMP280;65308;50.078;14.854;2023-06-14T05:42:01;99137.53;;;31.57
76476;BMP280;65308;50.078;14.854;2023-06-14T05:44:28;99134.41;;;32.42
76476;BMP280;65308;50.078;14.854;2023-06-14T05:46:55;99126.50;;;31.14
76476;BMP280;65308;50.078;14.854;2023-06-14T05:49:21;99129.19;;;30.81
76476;BMP280;65308;50.078;14.854;2023-06-14T05:51:48;99130.44;;;29.68
76476;BMP280;65308;50.078;14.854;2023-06-14T05:54:15;99128.16;;;28.43
76476;BMP280;65308;50.078;14.854;2023-06-14T05:56:42;99124.28;;;27.15
76476;BMP280;65308;50.078;14.854;2023-06-14T05:59:10;99134.28;;;26.78
76476;BMP280;65308;50.078;14.854;2023-06-14T06:01:37;99139.50;;;24.94
76476;BMP280;65308;50.078;14.854;2023-06-14T06:04:05;99132.44;;;24.04
76476;BMP280;65308;50.078;14.854;2023-06-14T06:06:32;99140.88;;;23.56
76476;BMP280;65308;50.078;14.854;2023-06-14T06:08:58;99126.97;;;22.57
76476;BMP280;65308;50.078;14.854;2023-06-14T06:11:25;99144.31;;;23.15
76476;BMP280;65308;50.078;14.854;2023-06-14T06:13:52;99139.59;;;23.57
76476;BMP280;65308;50.078;14.854;2023-06-14T06:16:20;99147.44;;;23.82
76476;BMP280;65308;50.078;14.854;2023-06-14T06:18:47;99144.53;;;24.60
76476;BMP280;65308;50.078;14.854;2023-06-14T06:21:14;99150.63;;;24.81
76476;BMP280;65308;50.078;14.854;2023-06-14T06:23:41;99155.00;;;24.84
76476;BMP280;65308;50.078;14.854;2023-06-14T06:26:08;99161.41;;;25.02
76476;BMP280;65308;50.078;14.854;2023-06-14T06:28:34;99164.03;;;26.89
76476;BMP280;65308;50.078;14.854;2023-06-14T06:31:01;99163.69;;;28.21
76476;BMP280;65308;50.078;14.854;2023-06-14T06:33:38;99159.41;;;29.01
76476;BMP280;65308;50.078;14.854;2023-06-14T06:36:06;99183.44;;;29.86
76476;BMP280;65308;50.078;14.854;2023-06-14T06:38:33;99168.19;;;31.07
76476;BMP280;65308;50.078;14.854;2023-06-14T06:40:59;99161.25;;;31.39
76476;BMP280;65308;50.078;14.854;2023-06-14T06:45:53;99167.75;;;31.32
76476;BMP280;65308;50.078;14.854;2023-06-14T06:48:24;99157.94;;;30.67
76476;BMP280;65308;50.078;14.854;2023-06-14T06:50:52;99171.06;;;30.16
76476;BMP280;65308;50.078;14.854;2023-06-14T06:53:19;99175.00;;;29.35
76476;BMP280;65308;50.078;14.854;2023-06-14T06:55:46;99177.63;;;29.72
76476;BMP280;65308;50.078;14.854;2023-06-14T06:58:14;99178.50;;;29.65
76476;BMP280;65308;50.078;14.854;2023-06-14T07:00:41;99187.25;;;30.41
76476;BMP280;65308;50.078;14.854;2023-06-14T07:03:13;99183.13;;;30.92
76476;BMP280;65308;50.078;14.854;2023-06-14T07:08:26;99195.69;;;31.05
76476;BMP280;65308;50.078;14.854;2023-06-14T07:10:53;99185.31;;;31.36
76476;BMP280;65308;50.078;14.854;2023-06-14T07:13:20;99195.78;;;31.38
76476;BMP280;65308;50.078;14.854;2023-06-14T07:15:50;99199.50;;;32.08
76476;BMP280;65308;50.078;14.854;2023-06-14T07:18:18;99193.31;;;32.66
76476;BMP280;65308;50.078;14.854;2023-06-14T07:20:45;99195.72;;;32.49
76476;BMP280;65308;50.078;14.854;2023-06-14T07:23:12;99208.78;;;34.61
76476;BMP280;65308;50.078;14.854;2023-06-14T07:25:40;99210.63;;;35.88
76476;BMP280;65308;50.078;14.854;2023-06-14T07:28:07;99208.25;;;36.79
76476;BMP280;65308;50.078;14.854;2023-06-14T07:30:33;99205.13;;;36.88
76476;BMP280;65308;50.078;14.854;2023-06-14T07:33:01;99211.31;;;37.96
76476;BMP280;65308;50.078;14.854;2023-06-14T07:35:28;99209.09;;;38.75
76476;BMP280;65308;50.078;14.854;2023-06-14T07:37:55;99202.31;;;38.19
76476;BMP280;65308;50.078;14.854;2023-06-14T07:40:22;99209.31;;;39.77
76476;BMP280;65308;50.078;14.854;2023-06-14T07:42:50;99213.69;;;40.97
76476;BMP280;65308;50.078;14.854;2023-06-14T07:45:16;99215.25;;;41.75
76476;BMP280;65308;50.078;14.854;2023-06-14T07:47:43;99218.69;;;42.09
76476;BMP280;65308;50.078;14.854;2023-06-14T07:50:10;99221.88;;;43.32
76476;BMP280;65308;50.078;14.854;2023-06-14T07:52:37;99216.50;;;44.41
76476;BMP280;65308;50.078;14.854;2023-06-14T07:55:04;99218.78;;;44.67
76476;BMP280;65308;50.078;14.854;2023-06-14T07:57:31;99218.69;;;44.50
76476;BMP280;65308;50.078;14.854;2023-06-14T07:59:59;99224.97;;;42.98
76476;BMP280;65308;50.078;14.854;2023-06-14T08:02:26;99229.22;;;42.53
76476;BMP280;65308;50.078;14.854;2023-06-14T08:04:52;99220.75;;;40.98
76476;BMP280;65308;50.078;14.854;2023-06-14T08:07:19;99225.81;;;42.14
76476;BMP280;65308;50.078;14.854;2023-06-14T08:09:46;99226.84;;;42.79
76476;BMP280;65308;50.078;14.854;2023-06-14T08:12:13;99224.28;;;43.01
76476;BMP280;65308;50.078;14.854;2023-06-14T08:14:42;99228.53;;;44.41
76476;BMP280;65308;50.078;14.854;2023-06-14T08:17:10;99225.63;;;44.35
76476;BMP280;65308;50.078;14.854;2023-06-14T08:19:36;99227.22;;;43.11
76476;BMP280;65308;50.078;14.854;2023-06-14T08:22:04;99218.88;;;42.19
76476;BMP280;65308;50.078;14.854;2023-06-14T08:24:30;99216.72;;;43.12
76476;BMP280;65308;50.078;14.854;2023-06-14T08:26:57;99219.88;;;41.96
76476;BMP280;65308;50.078;14.854;2023-06-14T08:29:26;99219.84;;;41.22
76476;BMP280;65308;50.078;14.854;2023-06-14T08:31:54;99208.66;;;38.00
76476;BMP280;65308;50.078;14.854;2023-06-14T08:34:22;99217.81;;;39.55
76476;BMP280;65308;50.078;14.854;2023-06-14T08:36:49;99221.75;;;39.95
76476;BMP280;65308;50.078;14.854;2023-06-14T08:39:16;99217.97;;;38.48
76476;BMP280;65308;50.078;14.854;2023-06-14T08:41:46;99217.09;;;38.63
76476;BMP280;65308;50.078;14.854;2023-06-14T08:44:13;99220.75;;;37.49
76476;BMP280;65308;50.078;14.854;2023-06-14T08:46:40;99217.56;;;36.68
76476;BMP280;65308;50.078;14.854;2023-06-14T08:49:10;99215.69;;;36.56
76476;BMP280;65308;50.078;14.854;2023-06-14T08:51:39;99224.44;;;36.17
76476;BMP280;65308;50.078;14.854;2023-06-14T08:54:06;99219.78;;;36.22
76476;BMP280;65308;50.078;14.854;2023-06-14T08:56:33;99231.59;;;36.87
76476;BMP280;65308;50.078;14.854;2023-06-14T08:59:00;99221.00;;;34.28
76476;BMP280;65308;50.078;14.854;2023-06-14T09:01:28;99227.44;;;35.45
76476;BMP280;65308;50.078;14.854;2023-06-14T09:03:56;99225.97;;;35.57
76476;BMP280;65308;50.078;14.854;2023-06-14T09:06:24;99225.44;;;34.61
76476;BMP280;65308;50.078;14.854;2023-06-14T09:08:55;99228.59;;;36.01
76476;BMP280;65308;50.078;14.854;2023-06-14T09:11:23;99232.28;;;35.44
76476;BMP280;65308;50.078;14.854;2023-06-14T09:13:51;99208.84;;;35.34
76476;BMP280;65308;50.078;14.854;2023-06-14T09:16:17;99208.53;;;34.84
76476;BMP280;65308;50.078;14.854;2023-06-14T09:18:45;99221.91;;;35.31
76476;BMP280;65308;50.078;14.854;2023-06-14T09:21:14;99217.09;;;33.81
76476;BMP280;65308;50.078;14.854;2023-06-14T09:23:43;99206.91;;;31.82
76476;BMP280;65308;50.078;14.854;2023-06-14T09:26:12;99206.19;;;32.62
76476;BMP280;65308;50.078;14.854;2023-06-14T09:28:41;99206.16;;;32.38
76476;BMP280;65308;50.078;14.854;2023-06-14T09:31:09;99201.47;;;32.99
76476;BMP280;65308;50.078;14.854;2023-06-14T09:33:37;99202.34;;;32.43
76476;BMP280;65308;50.078;14.854;2023-06-14T09:36:04;99189.91;;;31.65
76476;BMP280;65308;50.078;14.854;2023-06-14T09:38:31;99198.53;;;31.16
76476;BMP280;65308;50.078;14.854;2023-06-14T09:40:58;99195.78;;;31.16
76476;BMP280;65308;50.078;14.854;2023-06-14T09:43:26;99199.31;;;30.45
76476;BMP280;65308;50.078;14.854;2023-06-14T09:45:54;99191.25;;;30.90
76476;BMP280;65308;50.078;14.854;2023-06-14T09:48:20;99210.22;;;30.74
76476;BMP280;65308;50.078;14.854;2023-06-14T09:50:50;99189.56;;;31.06
76476;BMP280;65308;50.078;14.854;2023-06-14T09:53:21;99184.38;;;31.01
76476;BMP280;65308;50.078;14.854;2023-06-14T09:55:49;99186.38;;;30.48
76476;BMP280;65308;50.078;14.854;2023-06-14T09:58:19;99172.16;;;30.32
76476;BMP280;65308;50.078;14.854;2023-06-14T10:00:50;99191.25;;;29.51
76476;BMP280;65308;50.078;14.854;2023-06-14T10:03:21;99187.31;;;29.25
76476;BMP280;65308;50.078;14.854;2023-06-14T10:05:51;99193.47;;;28.96
76476;BMP280;65308;50.078;14.854;2023-06-14T10:08:19;99180.94;;;29.32
76476;BMP280;65308;50.078;14.854;2023-06-14T10:10:50;99192.59;;;29.79
76476;BMP280;65308;50.078;14.854;2023-06-14T10:13:17;99189.06;;;30.17
76476;BMP280;65308;50.078;14.854;2023-06-14T10:15:52;99190.50;;;30.27
76476;BMP280;65308;50.078;14.854;2023-06-14T10:18:28;99185.78;;;29.70
76476;BMP280;65308;50.078;14.854;2023-06-14T10:21:04;99182.59;;;28.35
76476;BMP280;65308;50.078;14.854;2023-06-14T10:23:37;99180.47;;;28.16
76476;BMP280;65308;50.078;14.854;2023-06-14T10:26:06;99179.34;;;28.46
76476;BMP280;65308;50.078;14.854;2023-06-14T10:28:32;99176.31;;;28.51
76476;BMP280;65308;50.078;14.854;2023-06-14T10:31:06;99177.53;;;28.14
76476;BMP280;65308;50.078;14.854;2023-06-14T10:33:33;99172.97;;;26.65
76476;BMP280;65308;50.078;14.854;2023-06-14T10:36:07;99170.53;;;26.44
76476;BMP280;65308;50.078;14.854;2023-06-14T10:38:36;99172.88;;;26.00
76476;BMP280;65308;50.078;14.854;2023-06-14T10:41:03;99165.25;;;25.75
76476;BMP280;65308;50.078;14.854;2023-06-14T10:43:30;99171.84;;;25.19
76476;BMP280;65308;50.078;14.854;2023-06-14T10:46:15;99172.00;;;24.39
76476;BMP280;65308;50.078;14.854;2023-06-14T10:48:43;99160.41;;;24.17
76476;BMP280;65308;50.078;14.854;2023-06-14T10:51:17;99158.16;;;24.44
76476;BMP280;65308;50.078;14.854;2023-06-14T10:53:46;99164.47;;;23.46
76476;BMP280;65308;50.078;14.854;2023-06-14T10:56:29;99168.47;;;23.45
76476;BMP280;65308;50.078;14.854;2023-06-14T10:58:56;99167.66;;;23.16
76476;BMP280;65308;50.078;14.854;2023-06-14T11:01:35;99157.22;;;23.49
76476;BMP280;65308;50.078;14.854;2023-06-14T11:04:10;99161.47;;;23.36
76476;BMP280;65308;50.078;14.854;2023-06-14T11:06:46;99156.97;;;23.39
76476;BMP280;65308;50.078;14.854;2023-06-14T11:09:51;99155.66;;;23.19
76476;BMP280;65308;50.078;14.854;2023-06-14T11:12:27;99156.19;;;23.38
76476;BMP280;65308;50.078;14.854;2023-06-14T11:14:54;99147.03;;;22.94
76476;BMP280;65308;50.078;14.854;2023-06-14T11:17:22;99156.31;;;23.33
76476;BMP280;65308;50.078;14.854;2023-06-14T11:19:49;99150.00;;;23.38
76476;BMP280;65308;50.078;14.854;2023-06-14T11:22:16;99142.00;;;23.19
76476;BMP280;65308;50.078;14.854;2023-06-14T11:24:44;99148.47;;;23.50
76476;BMP280;65308;50.078;14.854;2023-06-14T11:27:10;99143.00;;;23.71
76476;BMP280;65308;50.078;14.854;2023-06-14T11:29:38;99141.97;;;24.18
76476;BMP280;65308;50.078;14.854;2023-06-14T11:32:07;99153.88;;;24.64
76476;BMP280;65308;50.078;14.854;2023-06-14T11:34:39;99150.03;;;24.67
76476;BMP280;65308;50.078;14.854;2023-06-14T11:37:05;99146.09;;;23.47
76476;BMP280;65308;50.078;14.854;2023-06-14T11:39:32;99136.00;;;23.62
76476;BMP280;65308;50.078;14.854;2023-06-14T11:41:59;99152.63;;;22.89
76476;BMP280;65308;50.078;14.854;2023-06-14T11:44:26;99147.44;;;22.64
76476;BMP280;65308;50.078;14.854;2023-06-14T11:46:54;99145.09;;;22.81
76476;BMP280;65308;50.078;14.854;2023-06-14T11:49:23;99141.81;;;22.36
76476;BMP280;65308;50.078;14.854;2023-06-14T11:51:53;99135.81;;;22.64
76476;BMP280;65308;50.078;14.854;2023-06-14T11:54:19;99132.78;;;22.88
76476;BMP280;65308;50.078;14.854;2023-06-14T11:56:46;99137.91;;;23.47
76476;BMP280;65308;50.078;14.854;2023-06-14T11:59:13;99133.28;;;23.62
76476;BMP280;65308;50.078;14.854;2023-06-14T12:01:42;99136.88;;;23.16
76476;BMP280;65308;50.078;14.854;2023-06-14T12:04:10;99136.50;;;23.53
76476;BMP280;65308;50.078;14.854;2023-06-14T12:06:40;99134.34;;;23.88
76476;BMP280;65308;50.078;14.854;2023-06-14T12:09:09;99137.06;;;23.88
76476;BMP280;65308;50.078;14.854;2023-06-14T12:11:38;99142.03;;;23.97
76476;BMP280;65308;50.078;14.854;2023-06-14T12:14:05;99138.22;;;23.43
76476;BMP280;65308;50.078;14.854;2023-06-14T12:16:39;99139.34;;;23.76
76476;BMP280;65308;50.078;14.854;2023-06-14T12:19:15;99128.59;;;23.71
76476;BMP280;65308;50.078;14.854;2023-06-14T12:21:43;99140.19;;;23.63
76476;BMP280;65308;50.078;14.854;2023-06-14T12:24:14;99143.31;;;23.88
76476;BMP280;65308;50.078;14.854;2023-06-14T12:26:42;99137.06;;;24.16
76476;BMP280;65308;50.078;14.854;2023-06-14T12:29:21;99144.22;;;23.91
76476;BMP280;65308;50.078;14.854;2023-06-14T12:31:58;99136.56;;;23.61
76476;BMP280;65308;50.078;14.854;2023-06-14T12:34:25;99134.75;;;23.63
76476;BMP280;65308;50.078;14.854;2023-06-14T12:36:54;99132.53;;;23.62
76476;BMP280;65308;50.078;14.854;2023-06-14T12:39:27;99139.63;;;22.81
76476;BMP280;65308;50.078;14.854;2023-06-14T12:42:00;99148.41;;;22.27
76476;BMP280;65308;50.078;14.854;2023-06-14T12:44:35;99139.34;;;21.66
76476;BMP280;65308;50.078;14.854;2023-06-14T12:47:08;99131.31;;;21.41
76476;BMP280;65308;50.078;14.854;2023-06-14T12:49:35;99142.56;;;21.51
76476;BMP280;65308;50.078;14.854;2023-06-14T12:52:02;99138.84;;;21.35
76476;BMP280;65308;50.078;14.854;2023-06-14T12:54:33;99134.97;;;21.89
76476;BMP280;65308;50.078;14.854;2023-06-14T12:57:01;99137.09;;;22.10
76476;BMP280;65308;50.078;14.854;2023-06-14T12:59:31;99131.00;;;21.90
76476;BMP280;65308;50.078;14.854;2023-06-14T13:02:00;99147.34;;;21.90
76476;BMP280;65308;50.078;14.854;2023-06-14T13:04:27;99136.28;;;22.15
76476;BMP280;65308;50.078;14.854;2023-06-14T13:06:53;99138.13;;;22.07
76476;BMP280;65308;50.078;14.854;2023-06-14T13:09:20;99138.25;;;22.14
76476;BMP280;65308;50.078;14.854;2023-06-14T13:11:48;99138.34;;;22.22
76476;BMP280;65308;50.078;14.854;2023-06-14T13:14:15;99139.72;;;22.02
76476;BMP280;65308;50.078;14.854;2023-06-14T13:16:41;99130.88;;;21.83
76476;BMP280;65308;50.078;14.854;2023-06-14T13:19:08;99144.31;;;22.20
76476;BMP280;65308;50.078;14.854;2023-06-14T13:21:35;99142.75;;;22.25
76476;BMP280;65308;50.078;14.854;2023-06-14T13:24:05;99153.34;;;22.02
76476;BMP280;65308;50.078;14.854;2023-06-14T13:26:32;99148.16;;;21.72
76476;BMP280;65308;50.078;14.854;2023-06-14T13:29:01;99149.47;;;22.11
76476;BMP280;65308;50.078;14.854;2023-06-14T13:31:29;99142.53;;;22.36
76476;BMP280;65308;50.078;14.854;2023-06-14T13:33:55;99138.50;;;21.71
76476;BMP280;65308;50.078;14.854;2023-06-14T13:36:22;99143.31;;;21.78
76476;BMP280;65308;50.078;14.854;2023-06-14T13:38:49;99148.00;;;22.10
76476;BMP280;65308;50.078;14.854;2023-06-14T13:41:17;99143.72;;;22.14
76476;BMP280;65308;50.078;14.854;2023-06-14T13:43:44;99136.47;;;22.03
76476;BMP280;65308;50.078;14.854;2023-06-14T13:46:12;99140.66;;;22.31
76476;BMP280;65308;50.078;14.854;2023-06-14T13:48:39;99146.72;;;22.37
76476;BMP280;65308;50.078;14.854;2023-06-14T13:51:05;99140.97;;;22.88
76476;BMP280;65308;50.078;14.854;2023-06-14T13:53:32;99152.81;;;23.25
76476;BMP280;65308;50.078;14.854;2023-06-14T13:55:59;99139.75;;;23.10
76476;BMP280;65308;50.078;14.854;2023-06-14T13:58:25;99144.31;;;22.94
76476;BMP280;65308;50.078;14.854;2023-06-14T14:00:52;99142.19;;;23.00
76476;BMP280;65308;50.078;14.854;2023-06-14T14:06:13;99146.03;;;23.18
76476;BMP280;65308;50.078;14.854;2023-06-14T14:08:40;99138.47;;;22.29
76476;BMP280;65308;50.078;14.854;2023-06-14T14:11:06;99143.25;;;21.97
76476;BMP280;65308;50.078;14.854;2023-06-14T14:13:48;99136.88;;;21.81
76476;BMP280;65308;50.078;14.854;2023-06-14T14:16:24;99139.06;;;21.69
76476;BMP280;65308;50.078;14.854;2023-06-14T14:19:01;99130.13;;;21.69
76476;BMP280;65308;50.078;14.854;2023-06-14T14:21:29;99137.50;;;21.74
76476;BMP280;65308;50.078;14.854;2023-06-14T14:23:56;99130.69;;;22.20